Time;durP1;ratioP1;P1;durP2;ratioP2;P2;SDS_P1;SDS_P2;PMS_P1;PMS_P2;Temp;Humidity;BMP_temperature;BMP_pressure;BME280_temperature;BME280_humidity;BME280_pressure;Samples;Min_cycle;Max_cycle;Signal;HPM_P1;HPM_P2
2024/01/07 00:01:50;;;;;;;4.97;4.45;;;;;;;-0.95;100.00;102077.78;5036423;28;20045;-79
2024/01/07 00:04:18;;;;;;;6.22;4.60;;;;;;;-0.92;100.00;102086.66;4992126;28;20394;-79
2024/01/07 00:06:46;;;;;;;6.32;4.45;;;;;;;-0.93;100.00;102081.38;5043339;28;20052;-80
2024/01/07 00:09:15;;;;;;;4.95;4.15;;;;;;;-0.94;100.00;102080.50;5020057;28;20054;-80
2024/01/07 00:11:43;;;;;;;6.40;4.00;;;;;;;-0.95;100.00;102091.63;5030918;28;20151;-79
2024/01/07 00:14:10;;;;;;;6.57;4.45;;;;;;;-0.95;100.00;102093.31;5030094;28;20049;-79
2024/01/07 00:16:40;;;;;;;6.28;4.70;;;;;;;-0.95;100.00;102088.13;5041883;28;20059;-78
2024/01/07 00:19:08;;;;;;;7.13;5.35;;;;;;;-0.94;100.00;102089.94;5017786;28;20409;-81
2024/01/07 00:21:35;;;;;;;5.18;4.53;;;;;;;-0.94;100.00;102096.00;5047550;28;20045;-80
2024/01/07 00:24:03;;;;;;;5.50;4.63;;;;;;;-0.93;100.00;102104.66;5023860;28;20057;-80
2024/01/07 00:26:31;;;;;;;9.35;5.70;;;;;;;-0.92;100.00;102096.13;5035098;28;20041;-79
2024/01/07 00:28:58;;;;;;;8.73;5.07;;;;;;;-0.90;100.00;102104.88;5044883;28;20060;-79
2024/01/07 00:31:26;;;;;;;6.55;5.18;;;;;;;-0.91;100.00;102103.97;5048541;28;20060;-79
2024/01/07 00:33:53;;;;;;;5.68;4.13;;;;;;;-0.93;100.00;102102.97;5012496;28;20694;-79
2024/01/07 00:36:21;;;;;;;7.82;5.13;;;;;;;-0.95;100.00;102106.25;5076488;28;20052;-79
2024/01/07 00:38:48;;;;;;;6.70;4.75;;;;;;;-0.97;100.00;102106.13;5040922;28;20056;-81
2024/01/07 00:41:16;;;;;;;7.75;4.40;;;;;;;-0.98;100.00;102106.94;5046729;28;20051;-78
2024/01/07 00:43:43;;;;;;;4.32;3.92;;;;;;;-1.01;100.00;102124.84;5019579;28;20056;-79
2024/01/07 00:46:11;;;;;;;7.13;4.85;;;;;;;-1.04;100.00;102122.94;5057516;28;20041;-79
2024/01/07 00:48:38;;;;;;;5.45;4.70;;;;;;;-1.07;100.00;102122.72;5047380;28;20045;-79
2024/01/07 00:51:06;;;;;;;5.72;4.82;;;;;;;-1.09;100.00;102116.53;5013723;28;20064;-80
2024/01/07 00:53:33;;;;;;;7.00;4.00;;;;;;;-1.10;100.00;102130.25;5045182;28;20048;-80
2024/01/07 00:56:00;;;;;;;4.57;4.07;;;;;;;-1.16;100.00;102134.09;5035096;28;20044;-79
2024/01/07 00:58:28;;;;;;;5.75;4.38;;;;;;;-1.16;100.00;102140.16;5022858;28;20467;-79
2024/01/07 01:00:55;;;;;;;4.03;3.63;;;;;;;-1.15;100.00;102135.88;5061332;28;20497;-80
2024/01/07 01:03:23;;;;;;;5.05;4.10;;;;;;;-1.20;100.00;102139.03;5047300;28;20052;-80
2024/01/07 01:05:50;;;;;;;7.05;4.32;;;;;;;-1.19;100.00;102143.44;5011408;28;21169;-78
2024/01/07 01:08:18;;;;;;;4.28;3.88;;;;;;;-1.19;100.00;102142.56;5039103;28;20417;-78
2024/01/07 01:10:45;;;;;;;4.80;4.07;;;;;;;-1.25;100.00;102144.69;5029323;28;20044;-79
2024/01/07 01:13:13;;;;;;;5.57;4.00;;;;;;;-1.26;100.00;102153.25;5037141;28;20053;-79
2024/01/07 01:15:40;;;;;;;6.55;4.18;;;;;;;-1.27;100.00;102160.06;5044959;28;20044;-78
2024/01/07 01:18:08;;;;;;;5.32;4.63;;;;;;;-1.26;100.00;102158.41;5038021;28;20383;-79
2024/01/07 01:20:35;;;;;;;5.13;4.25;;;;;;;-1.26;100.00;102164.47;5052454;28;20053;-80
2024/01/07 01:23:03;;;;;;;6.40;4.82;;;;;;;-1.23;100.00;102161.19;4990309;28;20538;-79
2024/01/07 01:25:30;;;;;;;7.68;4.70;;;;;;;-1.21;100.00;102164.78;5021066;28;20045;-80
2024/01/07 01:27:58;;;;;;;5.30;4.40;;;;;;;-1.20;100.00;102174.38;5029730;28;20479;-80
2024/01/07 01:30:27;;;;;;;6.28;3.60;;;;;;;-1.22;100.00;102181.13;5039686;28;20041;-79
2024/01/07 01:32:55;;;;;;;8.60;4.20;;;;;;;-1.24;100.00;102177.53;5032723;28;20048;-79
2024/01/07 01:35:23;;;;;;;5.18;3.63;;;;;;;-1.24;100.00;102187.88;5046511;28;20071;-79
2024/01/07 01:37:50;;;;;;;4.63;3.53;;;;;;;-1.24;100.00;102193.03;5010396;28;20049;-80
2024/01/07 01:40:18;;;;;;;5.15;3.67;;;;;;;-1.24;100.00;102190.47;5025355;28;20421;-78
2024/01/07 01:42:47;;;;;;;7.00;4.30;;;;;;;-1.24;100.00;102182.69;5037037;28;20104;-79
2024/01/07 01:45:15;;;;;;;5.63;3.83;;;;;;;-1.22;100.00;102194.94;5037407;28;20067;-79
2024/01/07 01:47:43;;;;;;;4.45;3.85;;;;;;;-1.21;100.00;102196.75;5039173;28;20052;-79
2024/01/07 01:50:11;;;;;;;5.65;3.80;;;;;;;-1.22;100.00;102192.34;5046426;28;20053;-79
2024/01/07 01:52:39;;;;;;;7.30;4.45;;;;;;;-1.23;100.00;102193.16;5014051;28;20045;-80
2024/01/07 01:55:07;;;;;;;5.43;4.10;;;;;;;-1.22;100.00;102200.13;5046229;28;20047;-80
2024/01/07 01:57:38;;;;;;;4.00;3.60;;;;;;;-1.21;100.00;102212.28;5039272;28;20422;-80
2024/01/07 02:00:06;;;;;;;4.68;4.05;;;;;;;-1.20;100.00;102211.47;5037375;28;20080;-80
2024/01/07 02:02:34;;;;;;;4.30;3.42;;;;;;;-1.19;100.00;102213.28;5045746;28;20045;-79
2024/01/07 02:05:03;;;;;;;5.70;3.60;;;;;;;-1.16;100.00;102216.88;5045237;28;20049;-80
2024/01/07 02:07:31;;;;;;;4.15;3.58;;;;;;;-1.18;100.00;102235.75;5035185;28;20041;-80
2024/01/07 02:10:00;;;;;;;4.97;3.50;;;;;;;-1.18;100.00;102219.34;5035047;28;20689;-80
2024/01/07 02:12:27;;;;;;;4.18;3.47;;;;;;;-1.18;100.00;102219.34;5038176;28;20045;-79
2024/01/07 02:14:55;;;;;;;5.32;3.42;;;;;;;-1.19;100.00;102226.22;5011061;28;20506;-79
2024/01/07 02:17:22;;;;;;;4.70;3.10;;;;;;;-1.18;100.00;102225.41;5032086;28;20076;-79
2024/01/07 02:19:50;;;;;;;3.28;3.03;;;;;;;-1.18;100.00;102224.53;5044662;28;20048;-80
2024/01/07 02:22:18;;;;;;;7.53;3.70;;;;;;;-1.17;100.00;102226.34;5039192;28;20037;-80
2024/01/07 02:24:46;;;;;;;5.97;3.00;;;;;;;-1.15;100.00;102241.94;5016878;28;20041;-78
2024/01/07 02:27:14;;;;;;;5.97;2.97;;;;;;;-1.15;100.00;102223.84;5036047;28;20037;-79
2024/01/07 02:29:41;;;;;;;4.88;3.20;;;;;;;-1.18;100.00;102217.66;5067666;28;20053;-79
2024/01/07 02:32:09;;;;;;;3.75;2.83;;;;;;;-1.16;100.00;102224.63;5036272;28;20057;-79
2024/01/07 02:34:36;;;;;;;2.85;2.63;;;;;;;-1.16;100.00;102232.41;5046329;28;20045;-79
2024/01/07 02:37:04;;;;;;;5.72;2.85;;;;;;;-1.15;100.00;102227.34;5063482;28;20530;-80
2024/01/07 02:39:31;;;;;;;4.35;2.65;;;;;;;-1.14;100.00;102230.81;5039482;28;20053;-80
2024/01/07 02:41:59;;;;;;;4.50;3.08;;;;;;;-1.14;100.00;102246.34;5041636;28;20044;-80
2024/01/07 02:44:26;;;;;;;3.95;2.65;;;;;;;-1.14;100.00;102241.16;5039810;28;20786;-80
2024/01/07 02:46:54;;;;;;;3.75;2.75;;;;;;;-1.15;100.00;102245.44;5039151;28;20120;-81
2024/01/07 02:49:21;;;;;;;4.35;2.42;;;;;;;-1.14;100.00;102246.34;5029727;28;20048;-79
2024/01/07 02:51:49;;;;;;;3.85;2.30;;;;;;;-1.12;100.00;102250.81;5035515;28;20049;-79
2024/01/07 02:54:17;;;;;;;4.20;2.83;;;;;;;-1.11;100.00;102256.94;5041368;28;20738;-78
2024/01/07 02:56:45;;;;;;;3.35;2.97;;;;;;;-1.11;100.00;102259.50;5004603;28;20037;-79
2024/01/07 02:59:12;;;;;;;3.05;2.75;;;;;;;-1.12;100.00;102261.19;5031358;28;20057;-79
2024/01/07 03:01:40;;;;;;;3.60;3.08;;;;;;;-1.11;100.00;102260.41;5022480;28;20063;-79
2024/01/07 03:04:10;;;;;;;3.13;2.35;;;;;;;-1.09;100.00;102260.53;5041673;28;20502;-80
2024/01/07 03:06:38;;;;;;;3.75;2.60;;;;;;;-1.11;100.00;102270.75;5040511;28;20045;-80
2024/01/07 03:09:06;;;;;;;3.65;2.70;;;;;;;-1.10;100.00;102282.88;5044435;28;20080;-79
2024/01/07 03:11:33;;;;;;;4.28;2.55;;;;;;;-1.11;100.00;102275.94;5020767;28;20457;-79
2024/01/07 03:14:01;;;;;;;3.08;2.58;;;;;;;-1.09;100.00;102268.28;5024278;28;20049;-78
2024/01/07 03:16:28;;;;;;;3.10;2.55;;;;;;;-1.09;100.00;102281.22;5027791;28;20076;-78
2024/01/07 03:18:56;;;;;;;3.72;2.30;;;;;;;-1.09;100.00;102283.81;5033498;28;20048;-78
2024/01/07 03:21:24;;;;;;;3.53;2.42;;;;;;;-1.10;100.00;102298.41;5043573;28;20093;-79
2024/01/07 03:23:51;;;;;;;3.63;2.60;;;;;;;-1.11;100.00;102299.22;5022699;28;20513;-78
2024/01/07 03:26:19;;;;;;;7.78;2.50;;;;;;;-1.10;100.00;102298.41;4990419;28;20886;-79
2024/01/07 03:28:47;;;;;;;3.22;2.17;;;;;;;-1.10;100.00;102307.84;5028746;28;20045;-78
2024/01/07 03:31:16;;;;;;;2.80;2.58;;;;;;;-1.11;100.00;102303.50;5033583;28;20053;-78
2024/01/07 03:33:44;;;;;;;2.45;2.08;;;;;;;-1.11;100.00;102306.97;5032073;28;20049;-78
2024/01/07 03:36:13;;;;;;;2.78;2.33;;;;;;;-1.13;100.00;102316.31;5054682;28;20596;-78
2024/01/07 03:38:41;;;;;;;2.65;2.38;;;;;;;-1.16;100.00;102315.19;5046672;28;20049;-78
2024/01/07 03:41:09;;;;;;;2.60;2.38;;;;;;;-1.16;100.00;102316.06;5045610;28;20037;-78
2024/01/07 03:43:36;;;;;;;3.40;2.42;;;;;;;-1.15;100.00;102316.97;5030746;28;20044;-77
2024/01/07 03:46:04;;;;;;;3.95;2.15;;;;;;;-1.15;100.00;102322.13;5065727;28;20045;-79
2024/01/07 03:48:32;;;;;;;3.28;1.77;;;;;;;-1.17;100.00;102327.22;5032858;28;20060;-79
2024/01/07 03:50:59;;;;;;;4.03;2.08;;;;;;;-1.18;100.00;102334.06;5047672;28;20045;-80
2024/01/07 03:53:27;;;;;;;3.55;2.50;;;;;;;-1.18;100.00;102344.41;5037181;28;20056;-79
2024/01/07 03:55:54;;;;;;;2.30;2.10;;;;;;;-1.21;100.00;102332.94;5047200;28;20064;-78
2024/01/07 03:58:22;;;;;;;5.95;2.28;;;;;;;-1.19;100.00;102336.56;5003335;28;20033;-78
2024/01/07 04:00:49;;;;;;;2.83;2.15;;;;;;;-1.19;100.00;102344.31;5046316;28;20052;-80
2024/01/07 04:03:17;;;;;;;2.38;1.95;;;;;;;-1.19;100.00;102342.63;5030940;28;20053;-79
2024/01/07 04:05:47;;;;;;;4.28;1.95;;;;;;;-1.18;100.00;102344.41;5030127;28;20048;-78
2024/01/07 04:08:18;;;;;;;2.75;2.20;;;;;;;-1.19;100.00;102352.06;5044386;28;20041;-78
2024/01/07 04:10:45;;;;;;;2.53;1.80;;;;;;;-1.19;100.00;102354.66;5046668;28;20056;-78
2024/01/07 04:13:13;;;;;;;3.95;2.50;;;;;;;-1.20;100.00;102353.75;5011030;28;20044;-78
2024/01/07 04:15:40;;;;;;;2.08;1.60;;;;;;;-1.20;100.00;102369.25;5049962;28;20402;-78
2024/01/07 04:18:08;;;;;;;2.83;2.30;;;;;;;-1.19;100.00;102377.94;5029415;28;20048;-81
2024/01/07 04:20:35;;;;;;;3.45;2.13;;;;;;;-1.18;100.00;102380.63;5039765;28;20049;-78
2024/01/07 04:23:03;;;;;;;2.63;1.92;;;;;;;-1.16;100.00;102369.50;5043499;28;20052;-79
2024/01/07 04:25:31;;;;;;;3.13;1.77;;;;;;;-1.15;100.00;102361.88;5032555;28;20057;-79
2024/01/07 04:27:58;;;;;;;3.20;1.90;;;;;;;-1.12;100.00;102374.13;5029562;28;20036;-79
2024/01/07 04:30:26;;;;;;;3.35;2.25;;;;;;;-1.11;100.00;102381.09;5066613;28;20044;-79
2024/01/07 04:32:54;;;;;;;2.28;1.65;;;;;;;-1.11;100.00;102381.09;5039363;28;20045;-79
2024/01/07 04:35:21;;;;;;;2.20;1.75;;;;;;;-1.12;100.00;102381.88;5028756;28;20765;-77
2024/01/07 04:37:49;;;;;;;1.80;1.65;;;;;;;-1.11;100.00;102388.88;5027919;28;20045;-78
2024/01/07 04:40:16;;;;;;;2.95;1.50;;;;;;;-1.09;100.00;102401.13;5043891;28;20419;-78
2024/01/07 04:42:44;;;;;;;3.00;1.58;;;;;;;-1.08;100.00;102422.72;5053129;28;20137;-78
2024/01/07 04:45:11;;;;;;;2.60;1.98;;;;;;;-1.08;100.00;102402.00;5008797;28;20067;-79
2024/01/07 04:47:38;;;;;;;3.25;1.85;;;;;;;-1.08;100.00;102396.84;5049054;28;20060;-79
2024/01/07 04:50:06;;;;;;;3.83;1.83;;;;;;;-1.07;100.00;102406.41;5002320;28;20040;-79
2024/01/07 04:52:34;;;;;;;2.45;1.70;;;;;;;-1.06;100.00;102413.38;5047331;28;20059;-79
2024/01/07 04:55:05;;;;;;;2.38;1.60;;;;;;;-1.08;100.00;102413.25;5045061;28;20045;-78
2024/01/07 04:57:32;;;;;;;2.03;1.83;;;;;;;-1.05;100.00;102417.78;5049070;28;20045;-78
2024/01/07 04:59:59;;;;;;;5.03;1.73;;;;;;;-1.05;100.00;102417.78;5006843;28;20057;-78
2024/01/07 05:02:27;;;;;;;5.55;1.80;;;;;;;-1.06;100.00;102429.81;5026937;28;20104;-77
2024/01/07 05:04:55;;;;;;;2.50;1.55;;;;;;;-1.05;100.00;102444.53;5015621;28;20061;-79
2024/01/07 05:07:22;;;;;;;3.85;1.40;;;;;;;-1.05;100.00;102433.31;5026299;28;20576;-77
2024/01/07 05:09:50;;;;;;;4.47;1.40;;;;;;;-1.05;100.00;102420.38;5043935;28;20047;-77
2024/01/07 05:12:17;;;;;;;3.90;2.00;;;;;;;-1.06;100.00;102429.81;5044417;28;20033;-78
2024/01/07 05:14:46;;;;;;;2.85;1.70;;;;;;;-1.03;100.00;102440.38;5001232;28;20053;-77
2024/01/07 05:17:13;;;;;;;3.22;1.50;;;;;;;-1.03;100.00;102442.97;5036788;28;20037;-78
2024/01/07 05:19:41;;;;;;;4.25;1.40;;;;;;;-1.00;100.00;102447.50;5044877;28;20048;-77
2024/01/07 05:22:09;;;;;;;4.97;1.70;;;;;;;-0.99;100.00;102436.34;5014643;28;20045;-77
2024/01/07 05:24:38;;;;;;;1.60;1.50;;;;;;;-0.99;100.00;102449.28;5044133;28;20065;-78
2024/01/07 05:27:06;;;;;;;1.77;1.48;;;;;;;-0.98;100.00;102464.03;5044097;28;20421;-80
2024/01/07 05:29:33;;;;;;;3.55;1.52;;;;;;;-0.97;100.00;102455.47;5045724;28;20064;-77
2024/01/07 05:32:02;;;;;;;3.58;1.88;;;;;;;-0.96;100.00;102470.22;5005021;28;20049;-77
2024/01/07 05:34:30;;;;;;;3.35;1.50;;;;;;;-0.98;100.00;102493.41;5044835;28;20045;-79
2024/01/07 05:36:58;;;;;;;1.85;1.73;;;;;;;-0.98;100.00;102479.56;5020057;28;20048;-79
2024/01/07 05:39:25;;;;;;;3.45;1.38;;;;;;;-0.98;100.00;102480.47;5034442;28;20056;-78
2024/01/07 05:41:52;;;;;;;2.35;1.30;;;;;;;-0.97;100.00;102491.72;5043954;28;20073;-77
2024/01/07 05:44:20;;;;;;;2.08;1.75;;;;;;;-0.96;100.00;102502.94;5042626;28;20483;-77
2024/01/07 05:46:47;;;;;;;1.85;1.42;;;;;;;-0.95;100.00;102484.06;4999009;28;20474;-77
2024/01/07 05:49:15;;;;;;;1.45;1.27;;;;;;;-0.95;100.00;102497.91;5026204;28;20055;-78
2024/01/07 05:51:42;;;;;;;2.45;1.50;;;;;;;-0.96;100.00;102495.19;5034218;28;20060;-78
2024/01/07 05:54:10;;;;;;;1.98;1.48;;;;;;;-0.97;100.00;102504.66;5024999;28;20565;-78
2024/01/07 05:56:41;;;;;;;2.00;1.60;;;;;;;-0.97;100.00;102512.41;5030819;28;20497;-78
2024/01/07 05:59:08;;;;;;;;;;;;;;;-0.98;100.00;102518.38;5042804;28;20041;-79
2024/01/07 06:01:36;;;;;;;3.83;2.17;;;;;;;-0.97;100.00;102509.81;5010637;28;19921;-78
2024/01/07 06:04:04;;;;;;;2.85;1.50;;;;;;;-0.99;100.00;102517.47;5042292;28;20486;-78
2024/01/07 06:06:33;;;;;;;3.80;2.00;;;;;;;-0.99;100.00;102522.63;5006841;28;20045;-78
2024/01/07 06:09:02;;;;;;;3.05;1.23;;;;;;;-0.96;100.00;102531.41;5010452;28;20049;-78
2024/01/07 06:11:29;;;;;;;2.78;1.40;;;;;;;-0.96;100.00;102528.81;5019098;28;20760;-78
2024/01/07 06:13:57;;;;;;;2.50;1.30;;;;;;;-0.96;100.00;102542.69;5041267;28;20395;-79
2024/01/07 06:16:24;;;;;;;2.78;1.50;;;;;;;-0.96;100.00;102558.22;5042507;28;20056;-78
2024/01/07 06:18:52;;;;;;;2.15;1.70;;;;;;;-0.98;100.00;102573.63;4984176;28;20049;-78
2024/01/07 06:21:20;;;;;;;1.85;1.60;;;;;;;-0.98;100.00;102550.34;5032172;28;20881;-78
2024/01/07 06:23:47;;;;;;;3.20;1.60;;;;;;;-0.97;100.00;102556.41;5032531;28;20056;-79
2024/01/07 06:26:15;;;;;;;1.75;1.60;;;;;;;-0.98;100.00;102552.91;5018082;28;20572;-78
2024/01/07 06:28:42;;;;;;;2.88;1.65;;;;;;;-1.00;100.00;102556.19;5046291;28;20406;-78
2024/01/07 06:31:09;;;;;;;2.53;1.60;;;;;;;-1.00;100.00;102563.94;5041186;28;20045;-79
2024/01/07 06:33:37;;;;;;;2.03;1.60;;;;;;;-1.02;100.00;102558.66;4992511;28;20071;-78
2024/01/07 06:36:05;;;;;;;1.17;1.17;;;;;;;-1.02;100.00;102575.84;5036334;28;20387;-79
2024/01/07 06:38:33;;;;;;;4.22;1.70;;;;;;;-1.04;100.00;102574.81;5058171;28;20052;-78
2024/01/07 06:41:03;;;;;;;1.95;1.58;;;;;;;-1.05;100.00;102578.22;5050213;28;20049;-78
2024/01/07 06:43:32;;;;;;;2.75;1.83;;;;;;;-1.07;100.00;102575.50;5044072;28;20049;-77
2024/01/07 06:45:59;;;;;;;3.05;1.50;;;;;;;-1.07;100.00;102595.31;5040835;28;20547;-78
2024/01/07 06:48:27;;;;;;;1.70;1.60;;;;;;;-1.10;100.00;102585.59;5006330;28;21870;-79
2024/01/07 06:50:54;;;;;;;2.05;1.45;;;;;;;-1.11;100.00;102583.81;5025800;28;20057;-79
2024/01/07 06:53:22;;;;;;;2.38;1.35;;;;;;;-1.15;100.00;102593.78;5033028;28;20053;-79
2024/01/07 06:55:49;;;;;;;3.05;1.20;;;;;;;-1.16;100.00;102599.75;5011565;28;20533;-78
2024/01/07 06:58:17;;;;;;;1.20;1.17;;;;;;;-1.16;100.00;102600.66;5042715;28;21016;-78
2024/01/07 07:00:44;;;;;;;2.83;1.10;;;;;;;-1.18;100.00;102600.50;5031221;28;20041;-78
2024/01/07 07:03:12;;;;;;;1.67;1.20;;;;;;;-1.18;100.00;102607.38;5025827;28;20701;-78
2024/01/07 07:05:39;;;;;;;3.17;1.35;;;;;;;-1.19;100.00;102631.47;5012860;28;20049;-78
2024/01/07 07:08:07;;;;;;;2.47;1.33;;;;;;;-1.20;100.00;102624.47;5036631;28;20462;-79
2024/01/07 07:10:35;;;;;;;2.50;1.40;;;;;;;-1.18;100.00;102639.31;5035927;28;20056;-78
2024/01/07 07:13:02;;;;;;;2.38;1.50;;;;;;;-1.15;100.00;102635.16;5017597;28;20128;-78
2024/01/07 07:15:30;;;;;;;2.90;1.40;;;;;;;-1.13;100.00;102644.88;5047810;28;20048;-79
2024/01/07 07:17:57;;;;;;;1.95;1.30;;;;;;;-1.10;100.00;102649.38;5046513;28;20060;-79
2024/01/07 07:20:24;;;;;;;2.78;1.40;;;;;;;-1.10;100.00;102657.16;5007306;28;23541;-78
2024/01/07 07:22:52;;;;;;;4.57;1.30;;;;;;;-1.10;100.00;102652.88;5046627;28;20053;-79
2024/01/07 07:25:19;;;;;;;1.85;1.27;;;;;;;-1.09;100.00;102654.69;5037764;28;20080;-78
2024/01/07 07:27:47;;;;;;;2.58;1.30;;;;;;;-1.08;100.00;102666.81;5032563;28;20688;-79
2024/01/07 07:30:15;;;;;;;1.73;1.20;;;;;;;-1.06;100.00;102672.13;5032463;28;20049;-79
2024/01/07 07:32:44;;;;;;;1.80;1.40;;;;;;;-1.07;100.00;102678.09;5071086;28;20062;-78
2024/01/07 07:35:11;;;;;;;2.42;1.45;;;;;;;-1.08;100.00;102682.34;5003111;28;20053;-79
2024/01/07 07:37:39;;;;;;;4.28;1.58;;;;;;;-1.06;100.00;102686.00;5033845;28;20056;-78
2024/01/07 07:40:07;;;;;;;2.03;1.63;;;;;;;-1.05;100.00;102698.13;5036353;28;20051;-79
2024/01/07 07:42:34;;;;;;;3.58;1.40;;;;;;;-1.05;100.00;102686.88;5052768;28;20053;-78
2024/01/07 07:45:02;;;;;;;3.67;1.45;;;;;;;-1.07;100.00;102693.63;5033055;28;20062;-79
2024/01/07 07:47:30;;;;;;;5.30;1.90;;;;;;;-1.05;100.00;102690.38;5045751;28;20056;-78
2024/01/07 07:49:57;;;;;;;1.70;1.42;;;;;;;-1.03;100.00;102685.31;5035381;28;20037;-79
2024/01/07 07:52:25;;;;;;;4.43;1.70;;;;;;;-1.02;100.00;102688.03;5016291;28;20103;-78
2024/01/07 07:54:54;;;;;;;4.00;1.80;;;;;;;-1.03;100.00;102701.75;5034071;28;20064;-78
2024/01/07 07:57:22;;;;;;;3.25;1.95;;;;;;;-1.02;100.00;102705.22;5035318;28;20057;-78
2024/01/07 07:59:49;;;;;;;1.40;1.30;;;;;;;-1.02;100.00;102724.25;5042001;28;20044;-78
2024/01/07 08:02:17;;;;;;;1.70;1.50;;;;;;;-1.00;100.00;102719.22;5029709;28;20056;-78
2024/01/07 08:04:45;;;;;;;2.72;1.60;;;;;;;-0.98;100.00;102720.25;5040683;28;20041;-78
2024/01/07 08:07:12;;;;;;;1.65;1.27;;;;;;;-0.99;100.00;102724.50;5021822;28;20057;-78
2024/01/07 08:09:40;;;;;;;2.97;1.70;;;;;;;-0.99;100.00;102729.66;5022260;28;20052;-78
2024/01/07 08:12:08;;;;;;;6.93;1.52;;;;;;;-0.97;100.00;102737.56;5028221;28;20052;-79
2024/01/07 08:14:35;;;;;;;2.80;1.60;;;;;;;-0.96;100.00;102725.50;5044312;28;20052;-78
2024/01/07 08:17:04;;;;;;;3.10;1.55;;;;;;;-0.94;100.00;102724.88;5046518;28;20372;-78
2024/01/07 08:19:32;;;;;;;2.15;1.45;;;;;;;-0.90;100.00;102728.63;5072015;28;20049;-78
2024/01/07 08:22:00;;;;;;;3.25;1.50;;;;;;;-0.88;100.00;102725.34;4980129;28;20053;-79
2024/01/07 08:24:27;;;;;;;1.75;1.40;;;;;;;-0.86;100.00;102728.97;5051739;28;20045;-79
2024/01/07 08:26:55;;;;;;;5.63;1.50;;;;;;;-0.82;100.00;102724.94;5045423;28;20045;-79
2024/01/07 08:29:22;;;;;;;1.95;1.30;;;;;;;-0.81;100.00;102738.00;5038517;28;20770;-78
2024/01/07 08:31:50;;;;;;;3.58;1.77;;;;;;;-0.78;100.00;102737.34;5034042;28;20042;-78
2024/01/07 08:34:18;;;;;;;5.72;1.70;;;;;;;-0.77;100.00;102736.56;5035174;28;20056;-78
2024/01/07 08:36:45;;;;;;;5.53;2.00;;;;;;;-0.75;100.00;102744.47;5040566;28;20060;-78
2024/01/07 08:39:16;;;;;;;2.35;2.05;;;;;;;-0.73;100.00;102748.97;5004312;28;20406;-78
2024/01/07 08:41:43;;;;;;;2.92;1.30;;;;;;;-0.72;100.00;102749.88;5013413;28;20045;-78
2024/01/07 08:44:11;;;;;;;2.63;1.88;;;;;;;-0.71;100.00;102751.69;5015483;28;20056;-78
2024/01/07 08:46:39;;;;;;;1.70;1.60;;;;;;;-0.70;100.00;102759.59;5036052;28;20488;-77
2024/01/07 08:49:06;;;;;;;1.77;1.63;;;;;;;-0.68;100.00;102751.91;5027395;28;20048;-78
2024/01/07 08:51:34;;;;;;;1.85;1.63;;;;;;;-0.67;100.00;102764.97;5040792;28;20049;-78
2024/01/07 08:54:01;;;;;;;1.55;1.30;;;;;;;-0.67;100.00;102764.97;4997086;28;20067;-78
2024/01/07 08:56:29;;;;;;;2.47;1.35;;;;;;;-0.64;100.00;102772.13;5030121;28;20713;-78
2024/01/07 08:58:58;;;;;;;2.33;1.50;;;;;;;-0.64;100.00;102770.41;5030350;28;20033;-78
2024/01/07 09:01:26;;;;;;;7.10;1.33;;;;;;;-0.62;100.00;102786.97;5042250;28;20827;-78
2024/01/07 09:03:54;;;;;;;2.30;1.30;;;;;;;-0.63;100.00;102779.09;5029149;28;20409;-78
2024/01/07 09:06:21;;;;;;;1.50;1.20;;;;;;;-0.61;100.00;102777.50;5018677;28;20057;-78
2024/01/07 09:08:49;;;;;;;1.70;1.27;;;;;;;-0.58;100.00;102795.00;5005978;28;21076;-78
2024/01/07 09:11:19;;;;;;;4.20;1.70;;;;;;;-0.55;100.00;102792.63;5039829;28;20053;-80
2024/01/07 09:13:50;;;;;;;;;;;;;;;-0.54;100.00;102787.59;5020885;28;20498;-78
2024/01/07 09:16:17;;;;;;;2.03;1.35;;;;;;;-0.52;100.00;102801.56;5043195;28;19924;-79
2024/01/07 09:18:45;;;;;;;1.70;1.60;;;;;;;-0.50;100.00;102794.81;5039896;28;20049;-78
2024/01/07 09:21:13;;;;;;;2.22;1.70;;;;;;;-0.46;100.00;102791.69;5011832;28;20053;-79
2024/01/07 09:23:41;;;;;;;1.70;1.40;;;;;;;-0.45;100.00;102793.50;5030992;28;20096;-78
2024/01/07 09:26:09;;;;;;;1.50;1.40;;;;;;;-0.41;100.00;102797.25;4991453;28;20486;-79
2024/01/07 09:28:36;;;;;;;1.40;1.17;;;;;;;-0.42;100.00;102795.41;5033704;28;20079;-77
2024/01/07 09:31:04;;;;;;;1.70;1.60;;;;;;;-0.39;100.00;102806.03;5031609;28;20048;-77
2024/01/07 09:33:31;;;;;;;4.07;1.30;;;;;;;-0.38;100.00;102799.16;5026841;28;20060;-79
2024/01/07 09:35:59;;;;;;;1.95;1.55;;;;;;;-0.33;100.00;102808.19;5050375;28;20881;-79
2024/01/07 09:38:41;;;;;;;2.42;1.33;;;;;;;-0.33;100.00;102800.44;5043285;28;20045;-78
2024/01/07 09:41:09;;;;;;;2.97;1.40;;;;;;;-0.33;100.00;102800.44;4992930;28;20065;-78
2024/01/07 09:43:37;;;;;;;1.58;1.40;;;;;;;-0.32;100.00;102810.00;5023444;28;20525;-77
2024/01/07 09:46:04;;;;;;;1.85;1.40;;;;;;;-0.34;100.00;102808.97;5013550;28;20049;-78
2024/01/07 09:48:32;;;;;;;3.47;1.92;;;;;;;-0.35;100.00;102804.59;5021024;28;20048;-77
2024/01/07 09:51:01;;;;;;;1.20;1.10;;;;;;;-0.36;100.00;102816.63;5004756;28;20058;-78
2024/01/07 09:53:32;;;;;;;3.10;1.65;;;;;;;-0.36;100.00;102823.50;5043695;28;20404;-78
2024/01/07 09:56:29;;;;;;;1.67;1.45;;;;;;;-0.38;100.00;102817.28;4987725;28;20058;-77
2024/01/07 09:58:57;;;;;;;1.77;1.40;;;;;;;-0.37;100.00;102822.59;5048693;28;20053;-78
2024/01/07 10:01:25;;;;;;;3.22;1.30;;;;;;;-0.28;100.00;102827.63;5007940;28;21118;-77
2024/01/07 10:03:53;;;;;;;3.33;1.67;;;;;;;-0.20;100.00;102831.69;5039064;28;20049;-78
2024/01/07 10:06:21;;;;;;;2.53;1.63;;;;;;;-0.12;100.00;102832.31;5023385;28;20053;-78
2024/01/07 10:08:48;;;;;;;3.05;1.73;;;;;;;-0.09;100.00;102840.31;5020195;28;20057;-78
2024/01/07 10:11:16;;;;;;;2.70;1.95;;;;;;;-0.12;100.00;102825.41;4980850;28;20060;-79
2024/01/07 10:13:47;;;;;;;4.68;1.70;;;;;;;-0.14;100.00;102837.34;5031448;28;20081;-79
2024/01/07 10:16:15;;;;;;;3.58;1.95;;;;;;;-0.18;100.00;102832.72;4994820;28;20050;-78
2024/01/07 10:18:43;;;;;;;2.88;1.73;;;;;;;-0.21;100.00;102840.25;5017466;28;20398;-78
2024/01/07 10:21:11;;;;;;;2.83;1.60;;;;;;;-0.24;100.00;102837.44;5014363;28;20045;-78
2024/01/07 10:23:38;;;;;;;2.55;1.80;;;;;;;-0.27;100.00;102845.84;5007456;28;20065;-78
2024/01/07 10:26:06;;;;;;;2.38;1.52;;;;;;;-0.30;100.00;102839.50;4977865;28;20053;-78
2024/01/07 10:28:49;;;;;;;2.30;1.80;;;;;;;-0.35;100.00;102836.56;5015135;28;20053;-78
2024/01/07 10:31:17;;;;;;;3.10;2.00;;;;;;;-0.37;100.00;102843.31;5021780;28;20140;-78
2024/01/07 10:33:45;;;;;;;3.78;2.63;;;;;;;-0.38;100.00;102844.09;4986291;28;20081;-77
2024/01/07 10:36:12;;;;;;;2.80;2.10;;;;;;;-0.39;100.00;102842.28;5019981;28;20057;-77
2024/01/07 10:38:41;;;;;;;4.22;2.05;;;;;;;-0.40;100.00;102848.25;5020145;28;20044;-77
2024/01/07 10:41:12;;;;;;;3.13;1.83;;;;;;;-0.35;100.00;102840.84;4978410;28;20040;-79
2024/01/07 10:43:41;;;;;;;5.43;2.55;;;;;;;-0.29;100.00;102850.00;5014067;28;20034;-78
2024/01/07 10:46:11;;;;;;;5.03;2.70;;;;;;;-0.25;100.00;102848.56;5017275;28;20419;-78
2024/01/07 10:48:50;;;;;;;5.10;2.72;;;;;;;-0.22;100.00;102849.72;5012283;28;20299;-77
2024/01/07 10:51:20;;;;;;;7.22;2.70;;;;;;;-0.16;100.00;102856.16;5017600;28;20037;-77
2024/01/07 10:53:55;;;;;;;3.13;2.78;;;;;;;-0.15;100.00;102853.72;5027109;28;20049;-76
2024/01/07 10:56:24;;;;;;;3.88;2.70;;;;;;;-0.14;100.00;102870.16;4992139;28;20068;-77
2024/01/07 10:58:54;;;;;;;4.00;2.42;;;;;;;-0.16;100.00;102869.13;5017925;28;20056;-76
2024/01/07 11:01:22;;;;;;;5.57;3.43;;;;;;;-0.15;100.00;102868.31;5015614;28;20049;-77
2024/01/07 11:04:02;;;;;;;4.70;2.92;;;;;;;-0.14;100.00;102863.28;4998574;28;20045;-77
2024/01/07 11:06:49;;;;;;;4.07;2.78;;;;;;;-0.12;100.00;102866.88;5052562;28;20053;-78
2024/01/07 11:09:20;;;;;;;7.65;3.15;;;;;;;-0.14;100.00;102876.22;5010206;28;20045;-79
2024/01/07 11:11:47;;;;;;;3.25;2.67;;;;;;;-0.18;100.00;102871.59;5009047;28;20049;-77
2024/01/07 11:14:52;;;;;;;4.18;2.60;;;;;;;-0.17;100.00;102870.81;4971606;28;20049;-77
2024/01/07 11:17:32;;;;;;;6.00;2.70;;;;;;;-0.20;100.00;102878.34;4985088;28;20083;-77
2024/01/07 11:20:00;;;;;;;4.63;2.17;;;;;;;-0.24;100.00;102878.88;5013415;28;20053;-78
2024/01/07 11:22:28;;;;;;;5.80;3.13;;;;;;;-0.23;100.00;102871.25;4998759;28;20307;-78